< < Back
Terminal Aerodrome Forecast


Current Version              Previous Versions:   1  2  3  4  5  6  7  8  9  

Terminal Aerodrome Forecast

976
FTUS42 KFFC 241723
TAFFTY
TAF
KFTY 241723Z 2418/2518 24012G22KT P6SM SCT030
     FM242200 26010G20KT P6SM SCT040
     FM250000 30008KT P6SM SCT080
     FM251500 33006KT P6SM BKN120=



Latest METAR

888
SAUS70 KWBC 242300 RRF
MTRFTY
METAR KFTY 242253Z 00000KT 10SM CLR 20/09 A2985 RMK AO2 SLP101
T02000094


USA.gov is the U.S. government's official web portal to all federal, state and local government web resources and services.